createdAt,value
2022-09-11T00:00:13.691Z,15.05
2022-09-11T00:10:17.818Z,14.73
2022-09-11T00:20:21.403Z,13.05
2022-09-11T00:30:25.512Z,14.55
2022-09-11T00:40:28.253Z,13.75
2022-09-11T00:50:33.579Z,12.43
2022-09-11T01:00:37.196Z,12.77
2022-09-11T01:10:51.697Z,13.07
2022-09-11T01:21:09.175Z,13.65
2022-09-11T01:31:15.649Z,13.45
2022-09-11T01:41:21.002Z,12.32
2022-09-11T01:51:32.111Z,10.70
2022-09-11T02:01:37.926Z,10.40
2022-09-11T02:11:45.707Z,10.82
2022-09-11T02:21:50.806Z,10.10
2022-09-11T02:31:55.630Z,12.70
2022-09-11T02:42:13.216Z,11.07
2022-09-11T02:52:27.452Z,12.77
2022-09-11T03:02:31.268Z,12.23
2022-09-11T03:12:36.560Z,13.07
2022-09-11T03:22:39.765Z,9.90
2022-09-11T03:32:43.746Z,9.40
2022-09-11T03:42:46.519Z,8.63
2022-09-11T03:52:50.651Z,9.75
2022-09-11T04:02:53.779Z,8.45
2022-09-11T04:12:57.776Z,9.55
2022-09-11T04:23:00.465Z,8.35
2022-09-11T04:33:05.311Z,8.68
2022-09-11T04:43:08.187Z,7.97
2022-09-11T04:53:13.462Z,8.13
2022-09-11T05:03:16.085Z,7.75
2022-09-11T05:13:20.097Z,8.63
2022-09-11T05:23:22.758Z,8.32
2022-09-11T05:33:28.871Z,8.65
2022-09-11T05:43:31.610Z,10.57
2022-09-11T05:53:35.638Z,9.27
2022-09-11T06:03:39.373Z,9.25
2022-09-11T06:13:45.627Z,10.00
2022-09-11T06:23:48.651Z,9.73
2022-09-11T06:33:53.419Z,8.68
2022-09-11T06:43:56.336Z,8.63
2022-09-11T06:54:02.355Z,8.57
2022-09-11T07:04:04.995Z,7.10
2022-09-11T07:14:08.974Z,8.05
2022-09-11T07:24:11.614Z,10.77
2022-09-11T07:34:15.623Z,8.70
2022-09-11T07:44:18.515Z,9.35
2022-09-11T07:54:22.787Z,10.00
2022-09-11T08:04:25.564Z,10.52
2022-09-11T08:14:31.087Z,10.55
2022-09-11T08:24:33.796Z,11.45
2022-09-11T08:34:38.442Z,11.10
2022-09-11T08:44:47.999Z,11.75
2022-09-11T09:05:15.272Z,11.32
2022-09-11T09:15:29.264Z,10.35
2022-09-11T09:25:37.504Z,8.73
2022-09-11T09:35:44.567Z,6.50
2022-09-11T09:45:59.443Z,5.18
2022-09-11T09:56:05.956Z,4.60
2022-09-11T10:06:10.080Z,3.97
2022-09-11T10:16:23.335Z,4.53
2022-09-11T10:26:29.741Z,4.00
2022-09-11T10:36:35.083Z,3.60
2022-09-11T10:46:39.259Z,3.20
2022-09-11T10:56:54.582Z,2.40
2022-09-11T11:07:11.160Z,2.67
2022-09-11T11:17:24.812Z,3.25
2022-09-11T11:27:44.977Z,2.88
2022-09-11T11:37:50.147Z,3.03
2022-09-11T11:47:55.036Z,2.10
2022-09-11T11:58:07.870Z,2.10
2022-09-11T12:08:13.968Z,1.70
2022-09-11T12:18:25.751Z,1.30
2022-09-11T12:28:29.769Z,1.42
2022-09-11T12:38:40.421Z,1.83
2022-09-11T12:48:56.186Z,1.65
2022-09-11T12:59:10.972Z,1.70
2022-09-11T13:09:22.524Z,1.90
2022-09-11T13:19:33.298Z,1.80
2022-09-11T13:29:40.178Z,1.50
2022-09-11T13:39:45.927Z,1.48
2022-09-11T13:49:51.003Z,1.20
2022-09-11T13:59:56.878Z,1.30
2022-09-11T14:10:04.555Z,1.30
2022-09-11T14:20:17.806Z,1.50
2022-09-11T14:30:36.917Z,1.20
2022-09-11T14:40:48.397Z,1.50
2022-09-11T14:50:51.115Z,1.40
2022-09-11T15:00:56.548Z,1.20
2022-09-11T15:10:59.218Z,1.27
2022-09-11T15:21:03.413Z,1.20
2022-09-11T15:31:06.434Z,1.00
2022-09-11T15:41:11.004Z,1.20
2022-09-11T15:51:14.886Z,1.35
2022-09-11T16:01:20.135Z,1.30
2022-09-11T16:11:24.514Z,1.20
2022-09-11T16:21:29.463Z,1.10
2022-09-11T16:31:32.200Z,1.20
2022-09-11T16:41:37.779Z,1.35
2022-09-11T16:51:40.433Z,1.30
2022-09-11T17:01:45.181Z,1.50
2022-09-11T17:11:48.764Z,1.15
2022-09-11T17:21:52.878Z,1.17
2022-09-11T17:32:10.853Z,1.38
2022-09-11T17:42:19.990Z,1.50
2022-09-11T17:52:22.974Z,1.50
2022-09-11T18:02:27.910Z,1.60
2022-09-11T18:12:35.178Z,1.60
2022-09-11T18:22:39.897Z,2.28
2022-09-11T18:32:42.730Z,2.20
2022-09-11T18:42:47.119Z,2.70
2022-09-11T18:52:51.957Z,2.00
2022-09-11T19:02:56.967Z,2.63
2022-09-11T19:13:00.315Z,2.42
2022-09-11T19:23:04.725Z,2.28
2022-09-11T19:33:07.754Z,2.20
2022-09-11T19:43:12.260Z,2.13
2022-09-11T19:53:14.912Z,2.17
2022-09-11T20:03:19.634Z,2.30
2022-09-11T20:13:22.552Z,2.75
2022-09-11T20:23:26.802Z,2.45
2022-09-11T20:33:29.568Z,2.47
2022-09-11T20:43:33.654Z,2.80
2022-09-11T20:53:36.459Z,2.22
2022-09-11T21:03:44.925Z,2.30
2022-09-11T21:13:47.696Z,2.58
2022-09-11T21:23:55.421Z,2.13
2022-09-11T21:33:58.440Z,2.50
2022-09-11T21:44:03.206Z,2.88
2022-09-11T21:54:06.291Z,2.83
2022-09-11T22:04:10.272Z,2.95
2022-09-11T22:14:13.557Z,2.88
2022-09-11T22:24:19.696Z,2.85
2022-09-11T22:34:23.485Z,3.67
2022-09-11T22:44:27.645Z,3.30
2022-09-11T22:54:30.451Z,3.10
2022-09-11T23:04:34.648Z,3.10
2022-09-11T23:14:37.824Z,3.40
2022-09-11T23:24:41.989Z,4.53
2022-09-11T23:34:44.662Z,3.72
2022-09-11T23:44:48.807Z,4.75
2022-09-11T23:54:51.592Z,4.57
